createdAt,value
2023-01-31T00:00:10.031Z,15.35
2023-01-31T00:00:20.085Z,15.36
2023-01-31T00:00:30.152Z,15.35
2023-01-31T00:00:40.255Z,15.35
2023-01-31T00:00:50.319Z,15.35
2023-01-31T00:01:00.380Z,15.35
2023-01-31T00:01:10.492Z,15.36
2023-01-31T00:01:20.553Z,15.35
2023-01-31T00:01:30.609Z,15.35
2023-01-31T00:01:40.817Z,15.33
2023-01-31T00:01:50.902Z,15.34
2023-01-31T00:02:01.034Z,15.33
2023-01-31T00:02:11.109Z,15.34
2023-01-31T00:02:21.205Z,15.33
2023-01-31T00:02:31.269Z,15.33
2023-01-31T00:02:41.435Z,15.33
2023-01-31T00:02:51.399Z,15.33
2023-01-31T00:03:01.502Z,15.33
2023-01-31T00:03:11.688Z,15.33
2023-01-31T00:03:21.754Z,15.33
2023-01-31T00:03:31.856Z,15.34
2023-01-31T00:03:41.981Z,15.34
2023-01-31T00:03:52.020Z,15.32
2023-01-31T00:04:02.066Z,15.32
2023-01-31T00:04:12.254Z,15.32
2023-01-31T00:04:22.321Z,15.32
2023-01-31T00:04:32.384Z,15.32
2023-01-31T00:04:42.526Z,15.32
2023-01-31T00:04:52.589Z,15.32
2023-01-31T00:05:02.655Z,15.32
2023-01-31T00:05:12.806Z,15.33
2023-01-31T00:05:23.058Z,15.32
2023-01-31T00:05:32.910Z,15.32
2023-01-31T00:05:43.102Z,15.32
2023-01-31T00:05:53.148Z,15.32
2023-01-31T00:06:03.207Z,15.31
2023-01-31T00:06:13.441Z,15.32
2023-01-31T00:06:23.507Z,15.32
2023-01-31T00:06:33.566Z,15.32
2023-01-31T00:06:43.700Z,15.32
2023-01-31T00:06:53.789Z,15.32
2023-01-31T00:07:03.787Z,15.32
2023-01-31T00:07:13.930Z,15.32
2023-01-31T00:07:24.004Z,15.32
2023-01-31T00:07:34.068Z,15.32
2023-01-31T00:07:44.568Z,15.32
2023-01-31T00:07:54.312Z,15.33
2023-01-31T00:08:04.367Z,15.32
2023-01-31T00:08:14.560Z,15.32
2023-01-31T00:08:24.622Z,15.33
2023-01-31T00:08:35.071Z,15.33
2023-01-31T00:08:44.848Z,15.33
2023-01-31T00:08:54.915Z,15.33
2023-01-31T00:09:05.017Z,15.33
2023-01-31T00:09:15.103Z,15.33
2023-01-31T00:09:25.179Z,15.33
2023-01-31T00:09:35.252Z,15.33
2023-01-31T00:09:45.356Z,15.33
2023-01-31T00:09:55.416Z,15.33
2023-01-31T00:10:05.474Z,15.33
2023-01-31T00:10:15.589Z,15.32
2023-01-31T00:10:25.654Z,15.31
2023-01-31T00:10:36.189Z,15.32
2023-01-31T00:10:45.867Z,15.31
2023-01-31T00:10:55.963Z,15.32
2023-01-31T00:11:06.012Z,15.32
2023-01-31T00:11:16.102Z,15.33
2023-01-31T00:11:26.162Z,15.32
2023-01-31T00:11:36.370Z,15.33
2023-01-31T00:11:46.406Z,15.33
2023-01-31T00:11:56.506Z,15.33
2023-01-31T00:12:06.499Z,15.34
2023-01-31T00:12:16.698Z,15.33
2023-01-31T00:12:26.757Z,15.34
2023-01-31T00:12:37.195Z,15.34
2023-01-31T00:12:47.008Z,15.34
2023-01-31T00:12:57.077Z,15.34
2023-01-31T00:13:07.141Z,15.34
2023-01-31T00:13:17.246Z,15.34
2023-01-31T00:13:27.309Z,15.35
2023-01-31T00:13:37.390Z,15.34
2023-01-31T00:13:47.541Z,15.33
2023-01-31T00:13:57.598Z,15.35
2023-01-31T00:14:07.660Z,15.34
2023-01-31T00:14:17.819Z,15.34
2023-01-31T00:14:27.870Z,15.34
2023-01-31T00:14:38.467Z,15.34
2023-01-31T00:14:48.257Z,15.34
2023-01-31T00:14:58.322Z,15.33
2023-01-31T00:15:08.361Z,15.28
2023-01-31T00:15:18.771Z,15.30
2023-01-31T00:15:28.540Z,15.31
2023-01-31T00:15:39.027Z,15.31
2023-01-31T00:15:48.646Z,15.31
2023-01-31T00:15:58.731Z,15.31
2023-01-31T00:16:08.853Z,15.32
2023-01-31T00:16:18.850Z,15.31
2023-01-31T00:16:29.056Z,15.31
2023-01-31T00:16:39.275Z,15.32
2023-01-31T00:16:49.183Z,15.32
2023-01-31T00:16:59.322Z,15.32
2023-01-31T00:17:09.346Z,15.32
2023-01-31T00:17:19.419Z,15.33
2023-01-31T00:17:29.567Z,15.33
2023-01-31T00:17:40.100Z,15.34
2023-01-31T00:17:49.708Z,15.27
2023-01-31T00:17:59.761Z,15.30
2023-01-31T00:18:09.822Z,15.31
2023-01-31T00:18:19.905Z,15.32
2023-01-31T00:18:29.947Z,15.32
2023-01-31T00:18:40.139Z,15.32
2023-01-31T00:18:50.064Z,15.33
2023-01-31T00:19:00.123Z,15.32
2023-01-31T00:19:10.196Z,15.32
2023-01-31T00:19:20.273Z,15.33
2023-01-31T00:19:30.325Z,15.33
2023-01-31T00:19:40.383Z,15.33
2023-01-31T00:19:50.437Z,15.33
2023-01-31T00:20:00.500Z,15.33
2023-01-31T00:20:10.566Z,15.33
2023-01-31T00:20:20.640Z,15.33
2023-01-31T00:20:30.711Z,15.33
2023-01-31T00:20:40.768Z,15.33
2023-01-31T00:20:50.847Z,15.34
2023-01-31T00:21:00.914Z,15.33
2023-01-31T00:21:10.968Z,15.33
2023-01-31T00:21:21.026Z,15.33
2023-01-31T00:21:31.096Z,15.34
2023-01-31T00:21:41.192Z,15.33
2023-01-31T00:21:51.264Z,15.34
2023-01-31T00:22:01.357Z,15.33
2023-01-31T00:22:11.440Z,15.33
2023-01-31T00:22:21.500Z,15.34
2023-01-31T00:22:31.560Z,15.33
2023-01-31T00:22:41.749Z,15.33
2023-01-31T00:22:51.818Z,15.33
2023-01-31T00:23:01.870Z,15.33
2023-01-31T00:23:12.011Z,15.33
2023-01-31T00:23:22.070Z,15.33
2023-01-31T00:23:32.132Z,15.33
2023-01-31T00:23:42.318Z,15.33
2023-01-31T00:23:52.400Z,15.32
2023-01-31T00:24:02.464Z,15.32
2023-01-31T00:24:12.569Z,15.33
2023-01-31T00:24:22.614Z,15.33
2023-01-31T00:24:32.675Z,15.33
2023-01-31T00:24:42.930Z,15.32
2023-01-31T00:24:52.992Z,15.32
2023-01-31T00:25:03.062Z,15.32
2023-01-31T00:25:13.170Z,15.33
2023-01-31T00:25:23.236Z,15.32
2023-01-31T00:25:33.296Z,15.32
2023-01-31T00:25:43.418Z,15.32
2023-01-31T00:25:53.475Z,15.32
2023-01-31T00:26:03.530Z,15.32
2023-01-31T00:26:13.717Z,15.32
2023-01-31T00:26:23.853Z,15.32
2023-01-31T00:26:33.884Z,15.32
2023-01-31T00:26:44.073Z,15.32
2023-01-31T00:26:54.202Z,15.32
2023-01-31T00:27:04.141Z,15.32
2023-01-31T00:27:14.227Z,15.32
2023-01-31T00:27:24.278Z,15.33
2023-01-31T00:27:34.884Z,15.33
2023-01-31T00:27:44.452Z,15.32
2023-01-31T00:27:54.518Z,15.33
2023-01-31T00:28:04.575Z,15.33
2023-01-31T00:28:14.683Z,15.33
2023-01-31T00:28:24.740Z,15.33
2023-01-31T00:28:34.814Z,15.33
2023-01-31T00:28:44.991Z,15.33
2023-01-31T00:28:55.068Z,15.33
2023-01-31T00:29:05.149Z,15.34
2023-01-31T00:29:15.240Z,15.33
2023-01-31T00:29:25.299Z,15.34
2023-01-31T00:29:36.031Z,15.34
2023-01-31T00:29:45.583Z,15.34
2023-01-31T00:29:55.650Z,15.34
2023-01-31T00:30:05.714Z,15.35
2023-01-31T00:30:15.849Z,15.32
2023-01-31T00:30:25.922Z,15.32
2023-01-31T00:30:35.974Z,15.33
2023-01-31T00:30:46.074Z,15.33
2023-01-31T00:30:56.150Z,15.33
2023-01-31T00:31:06.235Z,15.33
2023-01-31T00:31:16.510Z,15.32
2023-01-31T00:31:26.530Z,15.33
2023-01-31T00:31:37.073Z,15.33
2023-01-31T00:31:46.694Z,15.26
2023-01-31T00:31:56.722Z,15.29
2023-01-31T00:32:06.824Z,15.30
2023-01-31T00:32:16.869Z,15.30
2023-01-31T00:32:26.959Z,15.31
2023-01-31T00:32:37.448Z,15.31
2023-01-31T00:32:46.924Z,15.31
2023-01-31T00:32:56.989Z,15.31
2023-01-31T00:33:07.045Z,15.32
2023-01-31T00:33:17.106Z,15.32
2023-01-31T00:33:27.184Z,15.32
2023-01-31T00:33:37.657Z,15.32
2023-01-31T00:33:47.327Z,15.32
2023-01-31T00:33:57.394Z,15.32
2023-01-31T00:34:07.460Z,15.32
2023-01-31T00:34:17.519Z,15.33
2023-01-31T00:34:27.607Z,15.32
2023-01-31T00:34:38.215Z,15.33
2023-01-31T00:34:47.739Z,15.32
2023-01-31T00:34:57.803Z,15.32
2023-01-31T00:35:07.919Z,15.32
2023-01-31T00:35:18.316Z,15.32
2023-01-31T00:35:28.029Z,15.32
2023-01-31T00:35:38.304Z,15.32
2023-01-31T00:35:48.292Z,15.32
2023-01-31T00:35:58.343Z,15.32
2023-01-31T00:36:08.461Z,15.33
2023-01-31T00:36:18.523Z,15.32
2023-01-31T00:36:28.583Z,15.33
2023-01-31T00:36:38.998Z,15.33
2023-01-31T00:36:48.814Z,15.33
2023-01-31T00:36:58.895Z,15.32
2023-01-31T00:37:08.999Z,15.33
2023-01-31T00:37:19.059Z,15.33
2023-01-31T00:37:29.124Z,15.33
2023-01-31T00:37:39.224Z,15.33
2023-01-31T00:37:49.285Z,15.33
2023-01-31T00:37:59.364Z,15.33
2023-01-31T00:38:09.472Z,15.32
2023-01-31T00:38:19.533Z,15.32
2023-01-31T00:38:29.598Z,15.32
2023-01-31T00:38:39.713Z,15.32
2023-01-31T00:38:49.781Z,15.32
2023-01-31T00:38:59.851Z,15.32
2023-01-31T00:39:09.980Z,15.32
2023-01-31T00:39:20.057Z,15.31
2023-01-31T00:39:30.117Z,15.32
2023-01-31T00:39:40.232Z,15.32
2023-01-31T00:39:50.288Z,15.32
2023-01-31T00:40:00.349Z,15.31
2023-01-31T00:40:10.504Z,15.31
2023-01-31T00:40:20.566Z,15.30
2023-01-31T00:40:30.629Z,15.30
2023-01-31T00:40:40.774Z,15.31
2023-01-31T00:40:50.830Z,15.30
2023-01-31T00:41:00.897Z,15.30
2023-01-31T00:41:11.093Z,15.31
2023-01-31T00:41:21.154Z,15.30
2023-01-31T00:41:31.206Z,15.31
2023-01-31T00:41:41.347Z,15.30
2023-01-31T00:41:51.409Z,15.31
2023-01-31T00:42:01.484Z,15.30
2023-01-31T00:42:11.662Z,15.31
2023-01-31T00:42:21.713Z,15.31
2023-01-31T00:42:31.775Z,15.32
2023-01-31T00:42:41.891Z,15.32
2023-01-31T00:42:51.962Z,15.32
2023-01-31T00:43:02.031Z,15.31
2023-01-31T00:43:12.134Z,15.31
2023-01-31T00:43:22.189Z,15.31
2023-01-31T00:43:32.343Z,15.31
2023-01-31T00:43:42.408Z,15.31
2023-01-31T00:43:52.478Z,15.31
2023-01-31T00:44:02.528Z,15.31
2023-01-31T00:44:12.729Z,15.31
2023-01-31T00:44:22.780Z,15.31
2023-01-31T00:44:32.841Z,15.32
2023-01-31T00:44:43.004Z,15.32
2023-01-31T00:44:53.069Z,15.31
2023-01-31T00:45:03.142Z,15.31
2023-01-31T00:45:13.275Z,15.30
2023-01-31T00:45:23.337Z,15.31
2023-01-31T00:45:33.412Z,15.31
2023-01-31T00:45:43.559Z,15.31
2023-01-31T00:45:53.604Z,15.29
2023-01-31T00:46:03.668Z,15.29
2023-01-31T00:46:13.916Z,15.31
2023-01-31T00:46:24.047Z,15.31
2023-01-31T00:46:34.652Z,15.31
2023-01-31T00:46:44.106Z,15.30
2023-01-31T00:46:54.197Z,15.30
2023-01-31T00:47:04.273Z,15.30
2023-01-31T00:47:14.275Z,15.30
2023-01-31T00:47:24.338Z,15.30
2023-01-31T00:47:34.744Z,15.30
2023-01-31T00:47:44.473Z,15.29
2023-01-31T00:47:54.559Z,15.28
2023-01-31T00:48:04.602Z,15.29
2023-01-31T00:48:14.656Z,15.29
2023-01-31T00:48:24.725Z,15.28
2023-01-31T00:48:35.413Z,15.29
2023-01-31T00:48:44.865Z,15.29
2023-01-31T00:48:54.890Z,15.29
2023-01-31T00:49:05.003Z,15.29
2023-01-31T00:49:15.033Z,15.29
2023-01-31T00:49:25.092Z,15.29
2023-01-31T00:49:35.690Z,15.29
2023-01-31T00:49:45.214Z,15.30
2023-01-31T00:49:55.362Z,15.29
2023-01-31T00:50:05.422Z,15.28
2023-01-31T00:50:15.485Z,15.28
2023-01-31T00:50:25.597Z,15.29
2023-01-31T00:50:36.033Z,15.28
2023-01-31T00:50:45.735Z,15.28
2023-01-31T00:50:55.846Z,15.28
2023-01-31T00:51:05.910Z,15.28
2023-01-31T00:51:15.969Z,15.29
2023-01-31T00:51:26.796Z,15.28
2023-01-31T00:51:36.621Z,15.28
2023-01-31T00:51:46.306Z,15.28
2023-01-31T00:51:56.414Z,15.28
2023-01-31T00:52:06.543Z,15.28
2023-01-31T00:52:16.597Z,15.29
2023-01-31T00:52:26.756Z,15.29
2023-01-31T00:52:37.058Z,15.29
2023-01-31T00:52:46.847Z,15.29
2023-01-31T00:52:57.012Z,15.29
2023-01-31T00:53:07.079Z,15.29
2023-01-31T00:53:17.139Z,15.28
2023-01-31T00:53:27.289Z,15.29
2023-01-31T00:53:38.324Z,15.29
2023-01-31T00:53:47.384Z,15.28
2023-01-31T00:53:57.489Z,15.28
2023-01-31T00:54:07.565Z,15.27
2023-01-31T00:54:17.627Z,15.27
2023-01-31T00:54:27.770Z,15.27
2023-01-31T00:54:38.012Z,15.27
2023-01-31T00:54:47.922Z,15.26
2023-01-31T00:54:58.071Z,15.26
2023-01-31T00:55:08.143Z,15.27
2023-01-31T00:55:18.579Z,15.27
2023-01-31T00:55:28.359Z,15.27
2023-01-31T00:55:38.419Z,15.27
2023-01-31T00:55:48.479Z,15.27
2023-01-31T00:55:58.622Z,15.27
2023-01-31T00:56:08.703Z,15.27
2023-01-31T00:56:18.771Z,15.28
2023-01-31T00:56:28.917Z,15.27
2023-01-31T00:56:38.972Z,15.26
2023-01-31T00:56:49.055Z,15.27
2023-01-31T00:56:59.197Z,15.27
2023-01-31T00:57:09.290Z,15.27
2023-01-31T00:57:19.339Z,15.27
2023-01-31T00:57:29.473Z,15.28
2023-01-31T00:57:39.533Z,15.27
2023-01-31T00:57:49.594Z,15.27
2023-01-31T00:57:59.715Z,15.28
2023-01-31T00:58:09.774Z,15.27
2023-01-31T00:58:19.834Z,15.27
2023-01-31T00:58:29.979Z,15.26
2023-01-31T00:58:40.048Z,15.27
2023-01-31T00:58:50.127Z,15.28
2023-01-31T00:59:00.235Z,15.27
2023-01-31T00:59:10.288Z,15.27
2023-01-31T00:59:20.351Z,15.27
2023-01-31T00:59:30.569Z,15.27
2023-01-31T00:59:40.619Z,15.26
2023-01-31T00:59:50.687Z,15.27
2023-01-31T01:00:00.786Z,15.26
2023-01-31T01:00:10.865Z,15.26
2023-01-31T01:00:20.916Z,15.26
2023-01-31T01:00:31.093Z,15.27
2023-01-31T01:00:41.156Z,15.27
2023-01-31T01:00:51.246Z,15.27
2023-01-31T01:01:01.388Z,15.26
2023-01-31T01:01:11.493Z,15.26
2023-01-31T01:01:21.484Z,15.26
2023-01-31T01:01:31.635Z,15.26
2023-01-31T01:01:41.724Z,15.25
2023-01-31T01:01:51.799Z,15.26
2023-01-31T01:02:02.010Z,15.25
2023-01-31T01:02:11.996Z,15.25
2023-01-31T01:02:22.012Z,15.25
2023-01-31T01:02:32.206Z,15.25
2023-01-31T01:02:42.260Z,15.25
2023-01-31T01:02:52.326Z,15.25
2023-01-31T01:03:02.432Z,15.25
2023-01-31T01:03:12.500Z,15.25
2023-01-31T01:03:22.573Z,15.25
2023-01-31T01:03:33.042Z,15.24
2023-01-31T01:03:42.754Z,15.25
2023-01-31T01:03:52.815Z,15.25
2023-01-31T01:04:02.924Z,15.26
2023-01-31T01:04:12.997Z,15.25
2023-01-31T01:04:23.066Z,15.24
2023-01-31T01:04:33.213Z,15.24
2023-01-31T01:04:43.277Z,15.25
2023-01-31T01:04:53.330Z,15.25
2023-01-31T01:05:03.475Z,15.25
2023-01-31T01:05:13.544Z,15.25
2023-01-31T01:05:23.612Z,15.25
2023-01-31T01:05:34.452Z,15.25
2023-01-31T01:05:43.834Z,15.25
2023-01-31T01:05:53.865Z,15.25
2023-01-31T01:06:04.014Z,15.25
2023-01-31T01:06:14.075Z,15.25
2023-01-31T01:06:24.144Z,15.24
2023-01-31T01:06:34.657Z,15.25
2023-01-31T01:06:44.336Z,15.25
2023-01-31T01:06:54.394Z,15.24
2023-01-31T01:07:04.545Z,15.25
2023-01-31T01:07:14.649Z,15.25
2023-01-31T01:07:24.661Z,15.25
2023-01-31T01:07:34.814Z,15.25
2023-01-31T01:07:44.867Z,15.25
2023-01-31T01:07:54.925Z,15.26
2023-01-31T01:08:05.080Z,15.26
2023-01-31T01:08:15.142Z,15.25
2023-01-31T01:08:25.214Z,15.25
2023-01-31T01:08:35.501Z,15.26
2023-01-31T01:08:45.418Z,15.25
2023-01-31T01:08:55.487Z,15.25
2023-01-31T01:09:05.636Z,15.25
2023-01-31T01:09:15.713Z,15.25
2023-01-31T01:09:25.765Z,15.25
2023-01-31T01:09:36.333Z,15.26
2023-01-31T01:09:45.977Z,15.26
2023-01-31T01:09:56.042Z,15.26
2023-01-31T01:10:06.199Z,15.26
2023-01-31T01:10:16.252Z,15.26
2023-01-31T01:10:26.313Z,15.26
2023-01-31T01:10:36.714Z,15.26
2023-01-31T01:10:46.486Z,15.26
2023-01-31T01:10:56.556Z,15.27
2023-01-31T01:11:06.719Z,15.27
2023-01-31T01:11:16.769Z,15.27
2023-01-31T01:11:26.880Z,15.25
2023-01-31T01:11:36.966Z,15.26
2023-01-31T01:11:47.044Z,15.27
2023-01-31T01:11:57.094Z,15.27
2023-01-31T01:12:07.239Z,15.24
2023-01-31T01:12:17.330Z,15.24
2023-01-31T01:12:27.411Z,15.25
2023-01-31T01:12:37.531Z,15.25
2023-01-31T01:12:47.585Z,15.24
2023-01-31T01:12:57.660Z,15.25
2023-01-31T01:13:08.808Z,15.25
2023-01-31T01:13:17.858Z,15.25
2023-01-31T01:13:27.913Z,15.25
2023-01-31T01:13:38.056Z,15.25
2023-01-31T01:13:48.141Z,15.25
2023-01-31T01:13:58.218Z,15.26
2023-01-31T01:14:08.344Z,15.25
2023-01-31T01:14:18.420Z,15.26
2023-01-31T01:14:28.490Z,15.26
2023-01-31T01:14:38.583Z,15.26
2023-01-31T01:14:48.642Z,15.26
2023-01-31T01:14:58.698Z,15.25
2023-01-31T01:15:08.844Z,15.25
2023-01-31T01:15:19.284Z,15.26
2023-01-31T01:15:28.976Z,15.26
2023-01-31T01:15:39.177Z,15.25
2023-01-31T01:15:49.162Z,15.26
2023-01-31T01:15:59.249Z,15.27
2023-01-31T01:16:09.406Z,15.27
2023-01-31T01:16:19.465Z,15.27
2023-01-31T01:16:29.515Z,15.27
2023-01-31T01:16:39.734Z,15.26
2023-01-31T01:16:49.731Z,15.26
2023-01-31T01:16:59.794Z,15.27
2023-01-31T01:17:09.902Z,15.27
2023-01-31T01:17:20.034Z,15.28
2023-01-31T01:17:30.013Z,15.27
2023-01-31T01:17:40.208Z,15.26
2023-01-31T01:17:50.271Z,15.27
2023-01-31T01:18:00.354Z,15.27
2023-01-31T01:18:10.452Z,15.27
2023-01-31T01:18:20.506Z,15.27
2023-01-31T01:18:30.567Z,15.27
2023-01-31T01:18:40.757Z,15.27
2023-01-31T01:18:50.839Z,15.27
2023-01-31T01:19:00.908Z,15.26
2023-01-31T01:19:11.014Z,15.26
2023-01-31T01:19:21.075Z,15.26
2023-01-31T01:19:31.171Z,15.27
2023-01-31T01:19:41.280Z,15.26
2023-01-31T01:19:51.351Z,15.26
2023-01-31T01:20:01.411Z,15.26
2023-01-31T01:20:11.525Z,15.26
2023-01-31T01:20:21.579Z,15.27
2023-01-31T01:20:31.924Z,15.26
2023-01-31T01:20:41.777Z,15.27
2023-01-31T01:20:51.845Z,15.27
2023-01-31T01:21:01.910Z,15.27
2023-01-31T01:21:12.078Z,15.27
2023-01-31T01:21:22.126Z,15.27
2023-01-31T01:21:32.419Z,15.27
2023-01-31T01:21:42.337Z,15.27
2023-01-31T01:21:52.404Z,15.27
2023-01-31T01:22:02.468Z,15.27
2023-01-31T01:22:12.617Z,15.27
2023-01-31T01:22:22.706Z,15.28
2023-01-31T01:22:33.210Z,15.28
2023-01-31T01:22:42.927Z,15.28
2023-01-31T01:22:52.973Z,15.28
2023-01-31T01:23:03.040Z,15.28
2023-01-31T01:23:13.190Z,15.28
2023-01-31T01:23:23.257Z,15.28
2023-01-31T01:23:33.314Z,15.29
2023-01-31T01:23:43.429Z,15.29
2023-01-31T01:23:53.486Z,15.29
2023-01-31T01:24:03.546Z,15.29
2023-01-31T01:24:13.741Z,15.29
2023-01-31T01:24:23.810Z,15.29
2023-01-31T01:24:34.285Z,15.29
2023-01-31T01:24:44.177Z,15.28
2023-01-31T01:24:54.241Z,15.28
2023-01-31T01:25:04.315Z,15.29
2023-01-31T01:25:14.400Z,15.28
2023-01-31T01:25:24.481Z,15.28
2023-01-31T01:25:34.946Z,15.27
2023-01-31T01:25:44.667Z,15.28
2023-01-31T01:25:54.725Z,15.28
2023-01-31T01:26:04.782Z,15.29
2023-01-31T01:26:15.065Z,15.28
2023-01-31T01:26:25.071Z,15.28
2023-01-31T01:26:35.243Z,15.28
2023-01-31T01:26:45.365Z,15.28
2023-01-31T01:26:55.397Z,15.28
2023-01-31T01:27:05.400Z,15.28
2023-01-31T01:27:15.547Z,15.29
2023-01-31T01:27:25.633Z,15.28
2023-01-31T01:27:35.990Z,15.29
2023-01-31T01:27:45.802Z,15.29
2023-01-31T01:27:55.878Z,15.29
2023-01-31T01:28:05.942Z,15.29
2023-01-31T01:28:16.039Z,15.28
2023-01-31T01:28:28.893Z,15.28
2023-01-31T01:28:36.599Z,15.26
2023-01-31T01:28:46.266Z,15.27
2023-01-31T01:28:56.328Z,15.26
2023-01-31T01:29:06.383Z,15.27
2023-01-31T01:29:16.437Z,15.27
2023-01-31T01:29:26.490Z,15.27
2023-01-31T01:29:36.567Z,15.28
2023-01-31T01:29:46.624Z,15.27
2023-01-31T01:29:56.684Z,15.27
2023-01-31T01:30:06.741Z,15.28
2023-01-31T01:30:16.812Z,15.28
2023-01-31T01:30:26.870Z,15.28
2023-01-31T01:30:36.926Z,15.28
2023-01-31T01:30:46.988Z,15.28
2023-01-31T01:30:57.079Z,15.28
2023-01-31T01:31:07.255Z,15.28
2023-01-31T01:31:17.273Z,15.28
2023-01-31T01:31:27.255Z,15.28
2023-01-31T01:31:37.351Z,15.28
2023-01-31T01:31:47.473Z,15.29
2023-01-31T01:31:57.545Z,15.29
2023-01-31T01:32:07.638Z,15.29
2023-01-31T01:32:17.624Z,15.29
2023-01-31T01:32:27.654Z,15.27
2023-01-31T01:32:37.797Z,15.28
2023-01-31T01:32:47.847Z,15.28
2023-01-31T01:32:57.915Z,15.28
2023-01-31T01:33:08.104Z,15.28
2023-01-31T01:33:18.178Z,15.28
2023-01-31T01:33:28.248Z,15.29
2023-01-31T01:33:38.347Z,15.28
2023-01-31T01:33:48.429Z,15.28
2023-01-31T01:33:58.485Z,15.28
2023-01-31T01:34:08.586Z,15.28
2023-01-31T01:34:18.648Z,15.28
2023-01-31T01:34:28.728Z,15.29
2023-01-31T01:34:38.906Z,15.29
2023-01-31T01:34:48.965Z,15.29
2023-01-31T01:34:59.012Z,15.30
2023-01-31T01:35:09.203Z,15.31
2023-01-31T01:35:19.531Z,15.31
2023-01-31T01:35:29.365Z,15.29
2023-01-31T01:35:39.431Z,15.31
2023-01-31T01:35:49.551Z,15.32
2023-01-31T01:35:59.567Z,15.31
2023-01-31T01:36:09.709Z,15.32
2023-01-31T01:36:19.771Z,15.32
2023-01-31T01:36:29.835Z,15.32
2023-01-31T01:36:40.045Z,15.32
2023-01-31T01:36:50.121Z,15.32
2023-01-31T01:37:00.176Z,15.33
2023-01-31T01:37:10.282Z,15.33
2023-01-31T01:37:20.371Z,15.33
2023-01-31T01:37:30.439Z,15.33
2023-01-31T01:37:40.543Z,15.33
2023-01-31T01:37:50.607Z,15.32
2023-01-31T01:38:00.696Z,15.33
2023-01-31T01:38:10.843Z,15.33
2023-01-31T01:38:20.898Z,15.33
2023-01-31T01:38:31.325Z,15.33
2023-01-31T01:38:41.129Z,15.34
2023-01-31T01:38:51.204Z,15.34
2023-01-31T01:39:01.251Z,15.33
2023-01-31T01:39:11.407Z,15.34
2023-01-31T01:39:21.465Z,15.34
2023-01-31T01:39:31.515Z,15.34
2023-01-31T01:39:41.679Z,15.34
2023-01-31T01:39:51.759Z,15.34
2023-01-31T01:40:01.810Z,15.34
2023-01-31T01:40:11.999Z,15.34
2023-01-31T01:40:22.058Z,15.33
2023-01-31T01:40:32.307Z,15.34
2023-01-31T01:40:42.239Z,15.34
2023-01-31T01:40:52.302Z,15.35
2023-01-31T01:41:02.385Z,15.34
2023-01-31T01:41:12.500Z,15.34
2023-01-31T01:41:22.540Z,15.34
2023-01-31T01:41:32.582Z,15.35
2023-01-31T01:41:42.778Z,15.34
2023-01-31T01:41:52.852Z,15.35
2023-01-31T01:42:02.914Z,15.35
2023-01-31T01:42:13.026Z,15.35
2023-01-31T01:42:23.083Z,15.36
2023-01-31T01:42:33.241Z,15.36
2023-01-31T01:42:43.296Z,15.36
2023-01-31T01:42:53.322Z,15.37
2023-01-31T01:43:03.405Z,15.31
2023-01-31T01:43:13.471Z,15.33
2023-01-31T01:43:23.528Z,15.34
2023-01-31T01:43:33.587Z,15.34
2023-01-31T01:43:43.661Z,15.36
2023-01-31T01:43:53.720Z,15.36
2023-01-31T01:44:03.784Z,15.36
2023-01-31T01:44:13.837Z,15.36
2023-01-31T01:44:23.900Z,15.36
2023-01-31T01:44:33.964Z,15.37
2023-01-31T01:44:44.069Z,15.37
2023-01-31T01:44:54.101Z,15.38
2023-01-31T01:45:04.196Z,15.37
2023-01-31T01:45:14.242Z,15.37
2023-01-31T01:45:24.613Z,15.37
2023-01-31T01:45:34.379Z,15.38
2023-01-31T01:45:44.445Z,15.38
2023-01-31T01:45:54.504Z,15.38
2023-01-31T01:46:04.639Z,15.37
2023-01-31T01:46:14.601Z,15.37
2023-01-31T01:46:24.710Z,15.36
2023-01-31T01:46:34.768Z,15.37
2023-01-31T01:46:44.844Z,15.37
2023-01-31T01:46:54.956Z,15.37
2023-01-31T01:47:05.013Z,15.38
2023-01-31T01:47:15.079Z,15.39
2023-01-31T01:47:25.248Z,15.37
2023-01-31T01:47:35.318Z,15.38
2023-01-31T01:47:45.378Z,15.38
2023-01-31T01:47:55.519Z,15.38
2023-01-31T01:48:05.585Z,15.38
2023-01-31T01:48:15.648Z,15.37
2023-01-31T01:48:25.770Z,15.38
2023-01-31T01:48:36.275Z,15.38
2023-01-31T01:48:45.871Z,15.39
2023-01-31T01:48:56.082Z,15.38
2023-01-31T01:49:06.146Z,15.39
2023-01-31T01:49:16.217Z,15.39
2023-01-31T01:49:26.323Z,15.40
2023-01-31T01:49:36.483Z,15.40
2023-01-31T01:49:46.436Z,15.40
2023-01-31T01:49:56.620Z,15.39
2023-01-31T01:50:06.687Z,15.39
2023-01-31T01:50:16.748Z,15.39
2023-01-31T01:50:27.139Z,15.39
2023-01-31T01:50:36.967Z,15.39
2023-01-31T01:50:47.029Z,15.39
2023-01-31T01:50:57.130Z,15.40
2023-01-31T01:51:07.184Z,15.40
2023-01-31T01:51:17.247Z,15.40
2023-01-31T01:51:27.451Z,15.40
2023-01-31T01:51:37.505Z,15.40
2023-01-31T01:51:47.554Z,15.40
2023-01-31T01:51:57.661Z,15.40
2023-01-31T01:52:07.718Z,15.40
2023-01-31T01:52:17.793Z,15.40
2023-01-31T01:52:28.419Z,15.40
2023-01-31T01:52:38.074Z,15.40
2023-01-31T01:52:48.150Z,15.40
2023-01-31T01:52:58.261Z,15.41
2023-01-31T01:53:08.317Z,15.39
2023-01-31T01:53:18.395Z,15.39
2023-01-31T01:53:28.614Z,15.39
2023-01-31T01:53:38.596Z,15.40
2023-01-31T01:53:48.662Z,15.39
2023-01-31T01:53:58.860Z,15.39
2023-01-31T01:54:08.915Z,15.40
2023-01-31T01:54:18.972Z,15.39
2023-01-31T01:54:29.414Z,15.39
2023-01-31T01:54:39.168Z,15.39
2023-01-31T01:54:49.228Z,15.40
2023-01-31T01:54:59.344Z,15.40
2023-01-31T01:55:09.386Z,15.39
2023-01-31T01:55:19.865Z,15.39
2023-01-31T01:55:29.596Z,15.39
2023-01-31T01:55:39.709Z,15.39
2023-01-31T01:55:49.730Z,15.40
2023-01-31T01:55:59.835Z,15.39
2023-01-31T01:56:09.899Z,15.38
2023-01-31T01:56:19.975Z,15.37
2023-01-31T01:56:30.384Z,15.37
2023-01-31T01:56:40.156Z,15.38
2023-01-31T01:56:50.222Z,15.38
2023-01-31T01:57:00.433Z,15.38
2023-01-31T01:57:10.488Z,15.38
2023-01-31T01:57:20.555Z,15.38
2023-01-31T01:57:30.667Z,15.39
2023-01-31T01:57:40.755Z,15.37
2023-01-31T01:57:50.818Z,15.31
2023-01-31T01:58:00.854Z,15.32
2023-01-31T01:58:10.909Z,15.34
2023-01-31T01:58:20.973Z,15.35
2023-01-31T01:58:31.463Z,15.35
2023-01-31T01:58:41.116Z,15.35
2023-01-31T01:58:51.180Z,15.36
2023-01-31T01:59:01.238Z,15.36
2023-01-31T01:59:11.310Z,15.36
2023-01-31T01:59:21.362Z,15.36
2023-01-31T01:59:31.418Z,15.37
2023-01-31T01:59:41.525Z,15.37
2023-01-31T01:59:51.581Z,15.37
2023-01-31T02:00:01.642Z,15.37
2023-01-31T02:00:11.825Z,15.37
2023-01-31T02:00:21.852Z,15.37
2023-01-31T02:00:31.919Z,15.38
2023-01-31T02:00:42.110Z,15.37
2023-01-31T02:00:52.273Z,15.38
2023-01-31T02:01:02.249Z,15.37
2023-01-31T02:01:12.361Z,15.37
2023-01-31T02:01:22.517Z,15.38
2023-01-31T02:01:32.448Z,15.36
2023-01-31T02:01:42.680Z,15.38
2023-01-31T02:01:52.918Z,15.38
2023-01-31T02:02:02.831Z,15.38
2023-01-31T02:02:13.077Z,15.38
2023-01-31T02:02:23.122Z,15.38
2023-01-31T02:02:33.179Z,15.38
2023-01-31T02:02:43.278Z,15.38
2023-01-31T02:02:53.305Z,15.38
2023-01-31T02:03:03.377Z,15.38
2023-01-31T02:03:13.518Z,15.38
2023-01-31T02:03:23.576Z,15.38
2023-01-31T02:03:33.642Z,15.38
2023-01-31T02:03:43.782Z,15.38
2023-01-31T02:03:53.838Z,15.37
2023-01-31T02:04:03.908Z,15.36
2023-01-31T02:04:14.065Z,15.36
2023-01-31T02:04:24.136Z,15.36
2023-01-31T02:04:34.193Z,15.36
2023-01-31T02:04:44.348Z,15.37
2023-01-31T02:04:54.408Z,15.36
2023-01-31T02:05:04.470Z,15.37
2023-01-31T02:05:14.655Z,15.36
2023-01-31T02:05:24.711Z,15.37
2023-01-31T02:05:34.798Z,15.36
2023-01-31T02:05:44.939Z,15.37
2023-01-31T02:05:54.994Z,15.36
2023-01-31T02:06:05.067Z,15.36
2023-01-31T02:06:15.235Z,15.37
2023-01-31T02:06:25.848Z,15.36
2023-01-31T02:06:35.988Z,15.35
2023-01-31T02:06:45.522Z,15.37
2023-01-31T02:06:55.583Z,15.36
2023-01-31T02:07:05.646Z,15.36
2023-01-31T02:07:15.758Z,15.36
2023-01-31T02:07:25.816Z,15.36
2023-01-31T02:07:36.008Z,15.36
2023-01-31T02:07:46.077Z,15.36
2023-01-31T02:07:56.083Z,15.36
2023-01-31T02:08:06.152Z,15.37
2023-01-31T02:08:16.380Z,15.36
2023-01-31T02:08:26.538Z,15.36
2023-01-31T02:08:36.499Z,15.36
2023-01-31T02:08:46.596Z,15.36
2023-01-31T02:08:56.675Z,15.35
2023-01-31T02:09:06.735Z,15.36
2023-01-31T02:09:16.877Z,15.35
2023-01-31T02:09:26.947Z,15.35
2023-01-31T02:09:37.009Z,15.35
2023-01-31T02:09:47.152Z,15.35
2023-01-31T02:09:57.215Z,15.35